sensor_id;sensor_type;location;lat;lon;timestamp;P1;durP1;ratioP1;P2;durP2;ratioP2
10122;SDS011;5101;49.038;8.710;2024-02-14T00:00:46;6.90;;;3.40;;
10122;SDS011;5101;49.038;8.710;2024-02-14T00:03:11;4.17;;;2.93;;
10122;SDS011;5101;49.038;8.710;2024-02-14T00:05:37;6.53;;;3.33;;
10122;SDS011;5101;49.038;8.710;2024-02-14T00:08:02;6.83;;;3.50;;
10122;SDS011;5101;49.038;8.710;2024-02-14T00:10:28;6.00;;;3.27;;
10122;SDS011;5101;49.038;8.710;2024-02-14T00:12:54;4.40;;;3.10;;
10122;SDS011;5101;49.038;8.710;2024-02-14T00:15:20;4.60;;;3.40;;
10122;SDS011;5101;49.038;8.710;2024-02-14T00:17:46;5.53;;;3.17;;
10122;SDS011;5101;49.038;8.710;2024-02-14T00:20:11;4.90;;;3.53;;
10122;SDS011;5101;49.038;8.710;2024-02-14T00:22:37;3.87;;;2.97;;
10122;SDS011;5101;49.038;8.710;2024-02-14T00:25:04;4.90;;;3.00;;
10122;SDS011;5101;49.038;8.710;2024-02-14T00:27:29;5.57;;;2.90;;
10122;SDS011;5101;49.038;8.710;2024-02-14T00:29:55;4.90;;;3.17;;
10122;SDS011;5101;49.038;8.710;2024-02-14T00:32:21;3.30;;;3.00;;
10122;SDS011;5101;49.038;8.710;2024-02-14T00:34:46;5.33;;;2.50;;
10122;SDS011;5101;49.038;8.710;2024-02-14T00:37:12;7.83;;;5.23;;
10122;SDS011;5101;49.038;8.710;2024-02-14T00:39:38;3.87;;;3.30;;
10122;SDS011;5101;49.038;8.710;2024-02-14T00:42:04;3.90;;;2.70;;
10122;SDS011;5101;49.038;8.710;2024-02-14T00:44:29;4.30;;;2.80;;
10122;SDS011;5101;49.038;8.710;2024-02-14T00:46:56;4.73;;;2.97;;
10122;SDS011;5101;49.038;8.710;2024-02-14T00:49:24;7.30;;;3.50;;
10122;SDS011;5101;49.038;8.710;2024-02-14T00:51:50;7.67;;;4.97;;
10122;SDS011;5101;49.038;8.710;2024-02-14T00:54:16;9.57;;;5.27;;
10122;SDS011;5101;49.038;8.710;2024-02-14T00:56:41;9.30;;;5.20;;
10122;SDS011;5101;49.038;8.710;2024-02-14T00:59:07;5.80;;;4.30;;
10122;SDS011;5101;49.038;8.710;2024-02-14T01:01:32;14.30;;;4.90;;
10122;SDS011;5101;49.038;8.710;2024-02-14T01:03:58;6.70;;;4.40;;
10122;SDS011;5101;49.038;8.710;2024-02-14T01:06:24;6.27;;;4.27;;
10122;SDS011;5101;49.038;8.710;2024-02-14T01:08:49;8.03;;;4.30;;
10122;SDS011;5101;49.038;8.710;2024-02-14T01:11:15;4.77;;;3.23;;
10122;SDS011;5101;49.038;8.710;2024-02-14T01:13:40;4.97;;;3.00;;
10122;SDS011;5101;49.038;8.710;2024-02-14T01:16:06;5.30;;;3.80;;
10122;SDS011;5101;49.038;8.710;2024-02-14T01:18:32;4.10;;;3.23;;
10122;SDS011;5101;49.038;8.710;2024-02-14T01:20:58;4.47;;;3.20;;
10122;SDS011;5101;49.038;8.710;2024-02-14T01:23:25;5.23;;;3.00;;
10122;SDS011;5101;49.038;8.710;2024-02-14T01:25:51;4.33;;;2.77;;
10122;SDS011;5101;49.038;8.710;2024-02-14T01:28:16;7.77;;;3.37;;
10122;SDS011;5101;49.038;8.710;2024-02-14T01:30:42;2.97;;;2.67;;
10122;SDS011;5101;49.038;8.710;2024-02-14T01:33:08;3.87;;;2.87;;
10122;SDS011;5101;49.038;8.710;2024-02-14T01:35:33;4.03;;;2.50;;
10122;SDS011;5101;49.038;8.710;2024-02-14T01:37:59;4.87;;;2.50;;
10122;SDS011;5101;49.038;8.710;2024-02-14T01:40:25;4.43;;;2.77;;
10122;SDS011;5101;49.038;8.710;2024-02-14T01:42:51;5.33;;;2.77;;
10122;SDS011;5101;49.038;8.710;2024-02-14T01:45:17;3.53;;;2.43;;
10122;SDS011;5101;49.038;8.710;2024-02-14T01:47:43;5.30;;;2.60;;
10122;SDS011;5101;49.038;8.710;2024-02-14T01:50:09;2.57;;;2.37;;
10122;SDS011;5101;49.038;8.710;2024-02-14T01:52:37;7.63;;;2.37;;
10122;SDS011;5101;49.038;8.710;2024-02-14T01:55:05;3.00;;;2.03;;
10122;SDS011;5101;49.038;8.710;2024-02-14T01:57:32;4.27;;;2.40;;
10122;SDS011;5101;49.038;8.710;2024-02-14T01:59:59;3.63;;;2.60;;
10122;SDS011;5101;49.038;8.710;2024-02-14T02:02:29;4.77;;;2.40;;
10122;SDS011;5101;49.038;8.710;2024-02-14T02:04:55;4.25;;;2.20;;
10122;SDS011;5101;49.038;8.710;2024-02-14T02:07:20;3.63;;;1.90;;
10122;SDS011;5101;49.038;8.710;2024-02-14T02:09:46;3.47;;;2.00;;
10122;SDS011;5101;49.038;8.710;2024-02-14T02:12:11;3.20;;;2.13;;
10122;SDS011;5101;49.038;8.710;2024-02-14T02:14:37;3.58;;;2.60;;
10122;SDS011;5101;49.038;8.710;2024-02-14T02:17:05;4.55;;;2.10;;
10122;SDS011;5101;49.038;8.710;2024-02-14T02:19:33;2.17;;;1.80;;
10122;SDS011;5101;49.038;8.710;2024-02-14T02:21:59;5.88;;;2.20;;
10122;SDS011;5101;49.038;8.710;2024-02-14T02:24:25;3.87;;;2.40;;
10122;SDS011;5101;49.038;8.710;2024-02-14T02:26:51;3.92;;;2.05;;
10122;SDS011;5101;49.038;8.710;2024-02-14T02:29:16;2.70;;;2.40;;
10122;SDS011;5101;49.038;8.710;2024-02-14T02:31:44;4.07;;;2.07;;
10122;SDS011;5101;49.038;8.710;2024-02-14T02:34:10;6.20;;;2.30;;
10122;SDS011;5101;49.038;8.710;2024-02-14T02:36:36;3.88;;;2.20;;
10122;SDS011;5101;49.038;8.710;2024-02-14T02:39:04;4.72;;;3.00;;
10122;SDS011;5101;49.038;8.710;2024-02-14T02:41:32;2.90;;;2.40;;
10122;SDS011;5101;49.038;8.710;2024-02-14T02:43:58;4.60;;;2.47;;
10122;SDS011;5101;49.038;8.710;2024-02-14T02:46:23;3.88;;;2.33;;
10122;SDS011;5101;49.038;8.710;2024-02-14T02:48:50;3.67;;;2.67;;
10122;SDS011;5101;49.038;8.710;2024-02-14T02:51:19;4.57;;;2.30;;
10122;SDS011;5101;49.038;8.710;2024-02-14T02:53:46;5.57;;;2.73;;
10122;SDS011;5101;49.038;8.710;2024-02-14T02:56:12;2.97;;;2.38;;
10122;SDS011;5101;49.038;8.710;2024-02-14T02:58:38;5.63;;;2.43;;
10122;SDS011;5101;49.038;8.710;2024-02-14T03:01:07;5.07;;;2.53;;
10122;SDS011;5101;49.038;8.710;2024-02-14T03:03:34;4.97;;;2.50;;
10122;SDS011;5101;49.038;8.710;2024-02-14T03:05:59;5.10;;;3.00;;
10122;SDS011;5101;49.038;8.710;2024-02-14T03:08:28;3.40;;;2.33;;
10122;SDS011;5101;49.038;8.710;2024-02-14T03:10:55;3.10;;;2.40;;
10122;SDS011;5101;49.038;8.710;2024-02-14T03:13:27;3.10;;;2.60;;
10122;SDS011;5101;49.038;8.710;2024-02-14T03:15:53;3.47;;;2.60;;
10122;SDS011;5101;49.038;8.710;2024-02-14T03:18:22;4.37;;;2.70;;
10122;SDS011;5101;49.038;8.710;2024-02-14T03:20:48;3.50;;;2.70;;
10122;SDS011;5101;49.038;8.710;2024-02-14T03:23:14;3.10;;;2.60;;
10122;SDS011;5101;49.038;8.710;2024-02-14T03:25:41;4.40;;;2.40;;
10122;SDS011;5101;49.038;8.710;2024-02-14T03:28:07;4.50;;;2.37;;
10122;SDS011;5101;49.038;8.710;2024-02-14T03:30:34;2.83;;;2.17;;
10122;SDS011;5101;49.038;8.710;2024-02-14T03:33:00;3.03;;;2.40;;
10122;SDS011;5101;49.038;8.710;2024-02-14T03:35:26;3.93;;;2.20;;
10122;SDS011;5101;49.038;8.710;2024-02-14T03:37:52;3.40;;;2.30;;
10122;SDS011;5101;49.038;8.710;2024-02-14T03:40:18;2.97;;;2.30;;
10122;SDS011;5101;49.038;8.710;2024-02-14T03:42:47;2.60;;;2.33;;
10122;SDS011;5101;49.038;8.710;2024-02-14T03:45:12;4.50;;;2.07;;
10122;SDS011;5101;49.038;8.710;2024-02-14T03:47:38;3.50;;;2.50;;
10122;SDS011;5101;49.038;8.710;2024-02-14T03:50:04;4.10;;;2.53;;
10122;SDS011;5101;49.038;8.710;2024-02-14T03:52:31;3.33;;;2.17;;
10122;SDS011;5101;49.038;8.710;2024-02-14T03:54:57;4.23;;;2.03;;
10122;SDS011;5101;49.038;8.710;2024-02-14T03:57:24;2.47;;;1.90;;
10122;SDS011;5101;49.038;8.710;2024-02-14T03:59:50;2.78;;;1.90;;
10122;SDS011;5101;49.038;8.710;2024-02-14T04:02:17;5.23;;;2.13;;
10122;SDS011;5101;49.038;8.710;2024-02-14T04:04:44;3.13;;;1.93;;
10122;SDS011;5101;49.038;8.710;2024-02-14T04:07:11;3.70;;;2.15;;
10122;SDS011;5101;49.038;8.710;2024-02-14T04:09:37;4.63;;;2.20;;
10122;SDS011;5101;49.038;8.710;2024-02-14T04:12:03;2.67;;;1.93;;
10122;SDS011;5101;49.038;8.710;2024-02-14T04:14:29;7.20;;;2.40;;
10122;SDS011;5101;49.038;8.710;2024-02-14T04:16:55;3.70;;;2.00;;
10122;SDS011;5101;49.038;8.710;2024-02-14T04:19:20;2.73;;;2.00;;
10122;SDS011;5101;49.038;8.710;2024-02-14T04:21:46;2.53;;;1.67;;
10122;SDS011;5101;49.038;8.710;2024-02-14T04:24:12;4.43;;;1.80;;
10122;SDS011;5101;49.038;8.710;2024-02-14T04:26:37;2.43;;;2.00;;
10122;SDS011;5101;49.038;8.710;2024-02-14T04:29:03;3.10;;;2.08;;
10122;SDS011;5101;49.038;8.710;2024-02-14T04:31:28;4.63;;;2.22;;
10122;SDS011;5101;49.038;8.710;2024-02-14T04:33:55;3.70;;;2.03;;
10122;SDS011;5101;49.038;8.710;2024-02-14T04:36:21;4.87;;;1.90;;
10122;SDS011;5101;49.038;8.710;2024-02-14T04:38:50;2.43;;;1.80;;
10122;SDS011;5101;49.038;8.710;2024-02-14T04:41:16;3.53;;;2.00;;
10122;SDS011;5101;49.038;8.710;2024-02-14T04:43:41;3.60;;;1.80;;
10122;SDS011;5101;49.038;8.710;2024-02-14T04:46:07;3.67;;;2.25;;
10122;SDS011;5101;49.038;8.710;2024-02-14T04:48:33;4.85;;;2.35;;
10122;SDS011;5101;49.038;8.710;2024-02-14T04:50:59;4.35;;;2.35;;
10122;SDS011;5101;49.038;8.710;2024-02-14T04:53:25;6.53;;;3.33;;
10122;SDS011;5101;49.038;8.710;2024-02-14T04:55:50;6.15;;;3.30;;
10122;SDS011;5101;49.038;8.710;2024-02-14T04:58:16;4.95;;;2.97;;
10122;SDS011;5101;49.038;8.710;2024-02-14T05:00:42;7.55;;;2.67;;
10122;SDS011;5101;49.038;8.710;2024-02-14T05:03:07;7.90;;;3.30;;
10122;SDS011;5101;49.038;8.710;2024-02-14T05:05:35;5.70;;;2.83;;
10122;SDS011;5101;49.038;8.710;2024-02-14T05:08:00;6.00;;;2.97;;
10122;SDS011;5101;49.038;8.710;2024-02-14T05:10:27;5.68;;;2.92;;
10122;SDS011;5101;49.038;8.710;2024-02-14T05:12:53;7.33;;;3.30;;
10122;SDS011;5101;49.038;8.710;2024-02-14T05:15:19;6.33;;;3.60;;
10122;SDS011;5101;49.038;8.710;2024-02-14T05:17:44;7.83;;;3.47;;
10122;SDS011;5101;49.038;8.710;2024-02-14T05:20:10;7.27;;;3.50;;
10122;SDS011;5101;49.038;8.710;2024-02-14T05:22:36;6.65;;;3.45;;
10122;SDS011;5101;49.038;8.710;2024-02-14T05:25:03;5.37;;;3.37;;
10122;SDS011;5101;49.038;8.710;2024-02-14T05:27:29;6.35;;;3.00;;
10122;SDS011;5101;49.038;8.710;2024-02-14T05:29:55;5.53;;;3.28;;
10122;SDS011;5101;49.038;8.710;2024-02-14T05:32:20;4.20;;;3.15;;
10122;SDS011;5101;49.038;8.710;2024-02-14T05:34:46;5.18;;;2.65;;
10122;SDS011;5101;49.038;8.710;2024-02-14T05:37:11;5.63;;;2.58;;
10122;SDS011;5101;49.038;8.710;2024-02-14T05:39:37;3.80;;;2.57;;
10122;SDS011;5101;49.038;8.710;2024-02-14T05:42:03;2.75;;;2.13;;
10122;SDS011;5101;49.038;8.710;2024-02-14T05:44:30;6.43;;;2.30;;
10122;SDS011;5101;49.038;8.710;2024-02-14T05:46:56;3.03;;;2.17;;
10122;SDS011;5101;49.038;8.710;2024-02-14T05:49:22;2.67;;;2.15;;
10122;SDS011;5101;49.038;8.710;2024-02-14T05:51:47;4.43;;;2.47;;
10122;SDS011;5101;49.038;8.710;2024-02-14T05:54:13;3.28;;;1.92;;
10122;SDS011;5101;49.038;8.710;2024-02-14T05:56:38;6.00;;;2.15;;
10122;SDS011;5101;49.038;8.710;2024-02-14T05:59:04;2.85;;;2.22;;
10122;SDS011;5101;49.038;8.710;2024-02-14T06:01:30;2.85;;;2.17;;
10122;SDS011;5101;49.038;8.710;2024-02-14T06:03:55;3.05;;;2.20;;
10122;SDS011;5101;49.038;8.710;2024-02-14T06:06:21;7.30;;;2.13;;
10122;SDS011;5101;49.038;8.710;2024-02-14T06:08:46;5.53;;;2.70;;
10122;SDS011;5101;49.038;8.710;2024-02-14T06:11:12;4.60;;;2.40;;
10122;SDS011;5101;49.038;8.710;2024-02-14T06:13:39;3.07;;;1.93;;
10122;SDS011;5101;49.038;8.710;2024-02-14T06:16:04;2.72;;;2.08;;
10122;SDS011;5101;49.038;8.710;2024-02-14T06:18:31;3.72;;;2.28;;
10122;SDS011;5101;49.038;8.710;2024-02-14T06:20:56;2.17;;;1.98;;
10122;SDS011;5101;49.038;8.710;2024-02-14T06:23:22;5.50;;;2.17;;
10122;SDS011;5101;49.038;8.710;2024-02-14T06:25:47;4.05;;;2.30;;
10122;SDS011;5101;49.038;8.710;2024-02-14T06:28:13;4.20;;;2.27;;
10122;SDS011;5101;49.038;8.710;2024-02-14T06:30:38;3.25;;;2.00;;
10122;SDS011;5101;49.038;8.710;2024-02-14T06:33:04;5.15;;;2.90;;
10122;SDS011;5101;49.038;8.710;2024-02-14T06:35:29;3.30;;;2.40;;
10122;SDS011;5101;49.038;8.710;2024-02-14T06:37:55;3.28;;;2.28;;
10122;SDS011;5101;49.038;8.710;2024-02-14T06:40:21;5.10;;;2.60;;
10122;SDS011;5101;49.038;8.710;2024-02-14T06:42:47;4.93;;;2.47;;
10122;SDS011;5101;49.038;8.710;2024-02-14T06:45:15;3.13;;;2.22;;
10122;SDS011;5101;49.038;8.710;2024-02-14T06:47:42;4.57;;;2.38;;
10122;SDS011;5101;49.038;8.710;2024-02-14T06:50:08;3.63;;;2.35;;
10122;SDS011;5101;49.038;8.710;2024-02-14T06:52:33;4.75;;;2.50;;
10122;SDS011;5101;49.038;8.710;2024-02-14T06:54:59;4.25;;;2.22;;
10122;SDS011;5101;49.038;8.710;2024-02-14T06:57:25;3.22;;;2.00;;
10122;SDS011;5101;49.038;8.710;2024-02-14T06:59:51;3.47;;;2.10;;
10122;SDS011;5101;49.038;8.710;2024-02-14T07:02:16;3.55;;;2.35;;
10122;SDS011;5101;49.038;8.710;2024-02-14T07:04:42;4.47;;;2.20;;
10122;SDS011;5101;49.038;8.710;2024-02-14T07:07:07;6.00;;;2.15;;
10122;SDS011;5101;49.038;8.710;2024-02-14T07:09:33;5.13;;;2.20;;
10122;SDS011;5101;49.038;8.710;2024-02-14T07:12:00;9.35;;;3.25;;
10122;SDS011;5101;49.038;8.710;2024-02-14T07:14:26;5.65;;;2.47;;
10122;SDS011;5101;49.038;8.710;2024-02-14T07:16:52;2.33;;;2.00;;
10122;SDS011;5101;49.038;8.710;2024-02-14T07:19:17;2.33;;;1.85;;
10122;SDS011;5101;49.038;8.710;2024-02-14T07:21:43;4.22;;;2.33;;
10122;SDS011;5101;49.038;8.710;2024-02-14T07:24:09;2.85;;;2.00;;
10122;SDS011;5101;49.038;8.710;2024-02-14T07:26:34;3.97;;;2.70;;
10122;SDS011;5101;49.038;8.710;2024-02-14T07:29:00;3.45;;;2.50;;
10122;SDS011;5101;49.038;8.710;2024-02-14T07:31:28;3.90;;;2.30;;
10122;SDS011;5101;49.038;8.710;2024-02-14T07:33:58;5.78;;;2.33;;
10122;SDS011;5101;49.038;8.710;2024-02-14T07:36:24;7.45;;;2.25;;
10122;SDS011;5101;49.038;8.710;2024-02-14T07:38:49;4.55;;;2.80;;
10122;SDS011;5101;49.038;8.710;2024-02-14T07:41:15;6.15;;;2.67;;
10122;SDS011;5101;49.038;8.710;2024-02-14T07:43:40;8.57;;;2.58;;
10122;SDS011;5101;49.038;8.710;2024-02-14T07:46:06;7.97;;;2.50;;
10122;SDS011;5101;49.038;8.710;2024-02-14T07:48:32;5.75;;;2.42;;
10122;SDS011;5101;49.038;8.710;2024-02-14T07:50:58;4.75;;;2.50;;
10122;SDS011;5101;49.038;8.710;2024-02-14T07:53:24;4.78;;;2.38;;
10122;SDS011;5101;49.038;8.710;2024-02-14T07:55:50;5.38;;;2.58;;
10122;SDS011;5101;49.038;8.710;2024-02-14T07:58:16;5.20;;;2.35;;
10122;SDS011;5101;49.038;8.710;2024-02-14T08:00:41;4.32;;;2.88;;
10122;SDS011;5101;49.038;8.710;2024-02-14T08:03:07;6.93;;;2.92;;
10122;SDS011;5101;49.038;8.710;2024-02-14T08:05:33;5.28;;;3.17;;
10122;SDS011;5101;49.038;8.710;2024-02-14T08:07:58;3.85;;;2.97;;
10122;SDS011;5101;49.038;8.710;2024-02-14T08:10:24;5.65;;;3.00;;
10122;SDS011;5101;49.038;8.710;2024-02-14T08:12:49;5.35;;;2.97;;
10122;SDS011;5101;49.038;8.710;2024-02-14T08:15:15;6.20;;;2.97;;
10122;SDS011;5101;49.038;8.710;2024-02-14T08:17:41;7.93;;;2.90;;
10122;SDS011;5101;49.038;8.710;2024-02-14T08:20:06;6.70;;;2.50;;
10122;SDS011;5101;49.038;8.710;2024-02-14T08:22:32;3.50;;;2.10;;
10122;SDS011;5101;49.038;8.710;2024-02-14T08:24:58;4.43;;;3.15;;
10122;SDS011;5101;49.038;8.710;2024-02-14T08:27:24;6.90;;;3.03;;
10122;SDS011;5101;49.038;8.710;2024-02-14T08:29:50;6.75;;;3.25;;
10122;SDS011;5101;49.038;8.710;2024-02-14T08:32:16;8.23;;;4.47;;
10122;SDS011;5101;49.038;8.710;2024-02-14T08:34:41;10.50;;;6.20;;
10122;SDS011;5101;49.038;8.710;2024-02-14T08:37:07;10.75;;;6.07;;
10122;SDS011;5101;49.038;8.710;2024-02-14T08:39:33;15.50;;;6.35;;
10122;SDS011;5101;49.038;8.710;2024-02-14T08:41:58;14.20;;;7.00;;
10122;SDS011;5101;49.038;8.710;2024-02-14T08:44:26;11.32;;;6.35;;
10122;SDS011;5101;49.038;8.710;2024-02-14T08:46:52;13.52;;;6.55;;
10122;SDS011;5101;49.038;8.710;2024-02-14T08:49:18;14.00;;;6.32;;
10122;SDS011;5101;49.038;8.710;2024-02-14T08:51:44;10.77;;;6.18;;
10122;SDS011;5101;49.038;8.710;2024-02-14T08:54:11;10.07;;;5.40;;
10122;SDS011;5101;49.038;8.710;2024-02-14T08:56:37;9.18;;;4.82;;
10122;SDS011;5101;49.038;8.710;2024-02-14T08:59:02;9.73;;;5.60;;
10122;SDS011;5101;49.038;8.710;2024-02-14T09:01:29;13.02;;;3.78;;
10122;SDS011;5101;49.038;8.710;2024-02-14T09:03:55;3.97;;;2.38;;
10122;SDS011;5101;49.038;8.710;2024-02-14T09:06:21;3.78;;;2.50;;
10122;SDS011;5101;49.038;8.710;2024-02-14T09:08:47;2.35;;;1.95;;
10122;SDS011;5101;49.038;8.710;2024-02-14T09:11:13;4.72;;;1.98;;
10122;SDS011;5101;49.038;8.710;2024-02-14T09:13:38;3.80;;;2.05;;
10122;SDS011;5101;49.038;8.710;2024-02-14T09:16:09;5.30;;;2.05;;
10122;SDS011;5101;49.038;8.710;2024-02-14T09:18:36;3.90;;;2.30;;
10122;SDS011;5101;49.038;8.710;2024-02-14T09:21:02;4.18;;;2.08;;
10122;SDS011;5101;49.038;8.710;2024-02-14T09:23:31;6.30;;;2.17;;
10122;SDS011;5101;49.038;8.710;2024-02-14T09:25:57;5.00;;;2.22;;
10122;SDS011;5101;49.038;8.710;2024-02-14T09:28:23;4.40;;;1.95;;
10122;SDS011;5101;49.038;8.710;2024-02-14T09:30:50;5.13;;;1.70;;
10122;SDS011;5101;49.038;8.710;2024-02-14T09:33:15;5.30;;;2.60;;
10122;SDS011;5101;49.038;8.710;2024-02-14T09:35:41;5.13;;;2.70;;
10122;SDS011;5101;49.038;8.710;2024-02-14T09:38:10;6.25;;;2.20;;
10122;SDS011;5101;49.038;8.710;2024-02-14T09:40:37;5.00;;;2.13;;
10122;SDS011;5101;49.038;8.710;2024-02-14T09:43:05;4.28;;;1.98;;
10122;SDS011;5101;49.038;8.710;2024-02-14T09:45:42;3.28;;;2.08;;
10122;SDS011;5101;49.038;8.710;2024-02-14T09:48:08;4.55;;;2.22;;
10122;SDS011;5101;49.038;8.710;2024-02-14T09:50:35;4.57;;;2.42;;
10122;SDS011;5101;49.038;8.710;2024-02-14T09:53:02;4.60;;;2.20;;
10122;SDS011;5101;49.038;8.710;2024-02-14T09:55:28;3.47;;;2.40;;
10122;SDS011;5101;49.038;8.710;2024-02-14T09:57:53;4.95;;;2.10;;
10122;SDS011;5101;49.038;8.710;2024-02-14T10:00:19;5.03;;;1.88;;
10122;SDS011;5101;49.038;8.710;2024-02-14T10:02:46;2.88;;;2.10;;
10122;SDS011;5101;49.038;8.710;2024-02-14T10:05:12;3.25;;;1.77;;
10122;SDS011;5101;49.038;8.710;2024-02-14T10:10:06;2.63;;;1.35;;
10122;SDS011;5101;49.038;8.710;2024-02-14T10:12:32;4.70;;;1.88;;
10122;SDS011;5101;49.038;8.710;2024-02-14T10:14:58;5.45;;;1.70;;
10122;SDS011;5101;49.038;8.710;2024-02-14T10:17:23;2.42;;;1.35;;
10122;SDS011;5101;49.038;8.710;2024-02-14T10:19:58;3.40;;;1.45;;
10122;SDS011;5101;49.038;8.710;2024-02-14T10:22:36;1.85;;;1.38;;
10122;SDS011;5101;49.038;8.710;2024-02-14T10:25:03;2.47;;;1.08;;
10122;SDS011;5101;49.038;8.710;2024-02-14T10:27:33;1.67;;;1.10;;
10122;SDS011;5101;49.038;8.710;2024-02-14T10:30:04;1.83;;;1.50;;
10122;SDS011;5101;49.038;8.710;2024-02-14T10:32:36;8.20;;;2.13;;
10122;SDS011;5101;49.038;8.710;2024-02-14T10:35:06;2.08;;;1.70;;
10122;SDS011;5101;49.038;8.710;2024-02-14T10:37:38;2.95;;;1.45;;
10122;SDS011;5101;49.038;8.710;2024-02-14T10:40:04;2.85;;;1.23;;
10122;SDS011;5101;49.038;8.710;2024-02-14T10:42:32;2.40;;;0.65;;
10122;SDS011;5101;49.038;8.710;2024-02-14T10:45:01;1.23;;;0.65;;
10122;SDS011;5101;49.038;8.710;2024-02-14T10:47:36;1.65;;;0.70;;
10122;SDS011;5101;49.038;8.710;2024-02-14T10:50:06;3.50;;;0.93;;
10122;SDS011;5101;49.038;8.710;2024-02-14T10:52:35;1.38;;;0.82;;
10122;SDS011;5101;49.038;8.710;2024-02-14T10:55:02;3.35;;;1.02;;
10122;SDS011;5101;49.038;8.710;2024-02-14T10:57:29;1.52;;;0.68;;
10122;SDS011;5101;49.038;8.710;2024-02-14T10:59:57;4.15;;;1.00;;
10122;SDS011;5101;49.038;8.710;2024-02-14T11:02:26;1.08;;;0.80;;
10122;SDS011;5101;49.038;8.710;2024-02-14T11:04:55;1.73;;;0.80;;
10122;SDS011;5101;49.038;8.710;2024-02-14T11:07:27;1.27;;;0.70;;
10122;SDS011;5101;49.038;8.710;2024-02-14T11:10:00;1.65;;;0.90;;
10122;SDS011;5101;49.038;8.710;2024-02-14T11:12:32;1.65;;;0.60;;
10122;SDS011;5101;49.038;8.710;2024-02-14T11:14:59;1.85;;;0.70;;
10122;SDS011;5101;49.038;8.710;2024-02-14T11:17:26;5.03;;;0.73;;
10122;SDS011;5101;49.038;8.710;2024-02-14T11:19:52;2.40;;;0.50;;
10122;SDS011;5101;49.038;8.710;2024-02-14T11:22:18;2.72;;;0.52;;
10122;SDS011;5101;49.038;8.710;2024-02-14T11:24:48;2.20;;;0.60;;
10122;SDS011;5101;49.038;8.710;2024-02-14T11:27:14;1.45;;;0.60;;
10122;SDS011;5101;49.038;8.710;2024-02-14T11:29:51;0.75;;;0.70;;
10122;SDS011;5101;49.038;8.710;2024-02-14T11:32:17;1.25;;;0.68;;
10122;SDS011;5101;49.038;8.710;2024-02-14T11:34:43;1.10;;;0.80;;
10122;SDS011;5101;49.038;8.710;2024-02-14T11:37:19;1.67;;;0.70;;
10122;SDS011;5101;49.038;8.710;2024-02-14T11:39:46;4.45;;;0.95;;
10122;SDS011;5101;49.038;8.710;2024-02-14T11:42:11;3.33;;;0.90;;
10122;SDS011;5101;49.038;8.710;2024-02-14T11:44:39;2.17;;;0.57;;
10122;SDS011;5101;49.038;8.710;2024-02-14T11:47:07;1.98;;;0.95;;
10122;SDS011;5101;49.038;8.710;2024-02-14T11:49:35;3.65;;;0.82;;
10122;SDS011;5101;49.038;8.710;2024-02-14T11:52:01;0.60;;;0.60;;
10122;SDS011;5101;49.038;8.710;2024-02-14T11:54:26;2.30;;;0.73;;
10122;SDS011;5101;49.038;8.710;2024-02-14T11:56:52;1.45;;;0.80;;
10122;SDS011;5101;49.038;8.710;2024-02-14T11:59:18;0.95;;;0.65;;
10122;SDS011;5101;49.038;8.710;2024-02-14T12:01:44;2.53;;;0.80;;
10122;SDS011;5101;49.038;8.710;2024-02-14T12:04:11;1.55;;;0.90;;
10122;SDS011;5101;49.038;8.710;2024-02-14T12:06:38;2.03;;;0.88;;
10122;SDS011;5101;49.038;8.710;2024-02-14T12:09:06;2.05;;;0.70;;
10122;SDS011;5101;49.038;8.710;2024-02-14T12:11:37;0.80;;;0.68;;
10122;SDS011;5101;49.038;8.710;2024-02-14T12:14:05;0.68;;;0.60;;
10122;SDS011;5101;49.038;8.710;2024-02-14T12:16:31;1.90;;;0.70;;
10122;SDS011;5101;49.038;8.710;2024-02-14T12:19:04;2.17;;;0.82;;
10122;SDS011;5101;49.038;8.710;2024-02-14T12:21:37;2.10;;;0.50;;
10122;SDS011;5101;49.038;8.710;2024-02-14T12:24:13;1.05;;;0.60;;
10122;SDS011;5101;49.038;8.710;2024-02-14T12:26:39;2.20;;;0.63;;
10122;SDS011;5101;49.038;8.710;2024-02-14T12:29:06;1.55;;;0.40;;
10122;SDS011;5101;49.038;8.710;2024-02-14T12:31:33;1.90;;;0.60;;
10122;SDS011;5101;49.038;8.710;2024-02-14T12:34:00;0.68;;;0.50;;
10122;SDS011;5101;49.038;8.710;2024-02-14T12:36:30;0.77;;;0.50;;
10122;SDS011;5101;49.038;8.710;2024-02-14T12:38:58;2.60;;;0.70;;
10122;SDS011;5101;49.038;8.710;2024-02-14T12:41:23;0.93;;;0.60;;
10122;SDS011;5101;49.038;8.710;2024-02-14T12:43:51;0.40;;;0.40;;
10122;SDS011;5101;49.038;8.710;2024-02-14T12:46:17;2.70;;;0.55;;
10122;SDS011;5101;49.038;8.710;2024-02-14T12:48:43;1.13;;;0.90;;
10122;SDS011;5101;49.038;8.710;2024-02-14T12:51:09;5.63;;;0.70;;
10122;SDS011;5101;49.038;8.710;2024-02-14T12:53:35;3.13;;;0.70;;
10122;SDS011;5101;49.038;8.710;2024-02-14T12:56:01;0.60;;;0.60;;
10122;SDS011;5101;49.038;8.710;2024-02-14T12:58:26;2.13;;;0.60;;
10122;SDS011;5101;49.038;8.710;2024-02-14T13:00:52;2.40;;;0.57;;
10122;SDS011;5101;49.038;8.710;2024-02-14T13:03:18;0.93;;;0.50;;
10122;SDS011;5101;49.038;8.710;2024-02-14T13:05:44;0.77;;;0.60;;
10122;SDS011;5101;49.038;8.710;2024-02-14T13:08:12;2.88;;;0.50;;
10122;SDS011;5101;49.038;8.710;2024-02-14T13:10:37;1.30;;;0.77;;
10122;SDS011;5101;49.038;8.710;2024-02-14T13:13:03;1.83;;;0.50;;
10122;SDS011;5101;49.038;8.710;2024-02-14T13:15:29;0.85;;;0.50;;
10122;SDS011;5101;49.038;8.710;2024-02-14T13:17:55;3.75;;;0.68;;
10122;SDS011;5101;49.038;8.710;2024-02-14T13:20:23;1.20;;;0.40;;
10122;SDS011;5101;49.038;8.710;2024-02-14T13:22:48;0.63;;;0.32;;
10122;SDS011;5101;49.038;8.710;2024-02-14T13:25:14;0.90;;;0.60;;
10122;SDS011;5101;49.038;8.710;2024-02-14T13:27:39;0.47;;;0.47;;
10122;SDS011;5101;49.038;8.710;2024-02-14T13:30:05;2.05;;;0.50;;
10122;SDS011;5101;49.038;8.710;2024-02-14T13:32:32;1.02;;;0.65;;
10122;SDS011;5101;49.038;8.710;2024-02-14T13:34:57;0.50;;;0.40;;
10122;SDS011;5101;49.038;8.710;2024-02-14T13:37:23;3.55;;;0.68;;
10122;SDS011;5101;49.038;8.710;2024-02-14T13:39:49;0.80;;;0.60;;
10122;SDS011;5101;49.038;8.710;2024-02-14T13:42:16;0.95;;;0.65;;
10122;SDS011;5101;49.038;8.710;2024-02-14T13:44:41;0.65;;;0.50;;
10122;SDS011;5101;49.038;8.710;2024-02-14T13:47:07;1.60;;;0.80;;
10122;SDS011;5101;49.038;8.710;2024-02-14T13:49:33;1.73;;;0.70;;
10122;SDS011;5101;49.038;8.710;2024-02-14T13:51:58;1.35;;;0.80;;
10122;SDS011;5101;49.038;8.710;2024-02-14T13:54:24;2.60;;;0.90;;
10122;SDS011;5101;49.038;8.710;2024-02-14T13:56:49;1.05;;;0.52;;
10122;SDS011;5101;49.038;8.710;2024-02-14T13:59:15;1.02;;;0.68;;
10122;SDS011;5101;49.038;8.710;2024-02-14T14:01:41;0.57;;;0.52;;
10122;SDS011;5101;49.038;8.710;2024-02-14T14:04:07;3.03;;;0.68;;
10122;SDS011;5101;49.038;8.710;2024-02-14T14:06:32;2.25;;;0.88;;
10122;SDS011;5101;49.038;8.710;2024-02-14T14:08:59;1.02;;;0.70;;
10122;SDS011;5101;49.038;8.710;2024-02-14T14:11:25;2.60;;;0.68;;
10122;SDS011;5101;49.038;8.710;2024-02-14T14:13:50;1.70;;;0.50;;
10122;SDS011;5101;49.038;8.710;2024-02-14T14:16:16;2.13;;;0.70;;
10122;SDS011;5101;49.038;8.710;2024-02-14T14:18:42;0.90;;;0.70;;
10122;SDS011;5101;49.038;8.710;2024-02-14T14:21:08;0.65;;;0.63;;
10122;SDS011;5101;49.038;8.710;2024-02-14T14:23:33;1.90;;;0.68;;
10122;SDS011;5101;49.038;8.710;2024-02-14T14:25:59;1.23;;;0.60;;
10122;SDS011;5101;49.038;8.710;2024-02-14T14:28:25;0.70;;;0.70;;
10122;SDS011;5101;49.038;8.710;2024-02-14T14:30:51;2.70;;;1.40;;
10122;SDS011;5101;49.038;8.710;2024-02-14T14:33:18;0.70;;;0.70;;
10122;SDS011;5101;49.038;8.710;2024-02-14T14:35:44;3.58;;;0.80;;
10122;SDS011;5101;49.038;8.710;2024-02-14T14:38:10;0.80;;;0.80;;
10122;SDS011;5101;49.038;8.710;2024-02-14T14:40:36;1.00;;;0.70;;
10122;SDS011;5101;49.038;8.710;2024-02-14T14:43:02;0.57;;;0.50;;
10122;SDS011;5101;49.038;8.710;2024-02-14T14:45:32;2.90;;;0.55;;
10122;SDS011;5101;49.038;8.710;2024-02-14T14:47:57;1.60;;;0.88;;
10122;SDS011;5101;49.038;8.710;2024-02-14T14:50:23;2.17;;;0.75;;
10122;SDS011;5101;49.038;8.710;2024-02-14T14:52:50;0.98;;;0.60;;
10122;SDS011;5101;49.038;8.710;2024-02-14T14:55:17;1.63;;;0.63;;
10122;SDS011;5101;49.038;8.710;2024-02-14T14:57:42;1.95;;;0.63;;